sensor_id;sensor_type;location;lat;lon;timestamp;pressure;altitude;pressure_sealevel;temperature;humidity
19128;BME280;9696;53.686;10.094;2023-04-05T00:01:35;102402.47;;;-0.62;100.00
19128;BME280;9696;53.686;10.094;2023-04-05T00:04:05;102397.47;;;-0.74;100.00
19128;BME280;9696;53.686;10.094;2023-04-05T00:06:36;102399.19;;;-0.73;100.00
19128;BME280;9696;53.686;10.094;2023-04-05T00:09:08;102389.59;;;-0.63;100.00
19128;BME280;9696;53.686;10.094;2023-04-05T00:11:37;102398.47;;;-0.84;100.00
19128;BME280;9696;53.686;10.094;2023-04-05T00:14:06;102390.06;;;-0.98;100.00
19128;BME280;9696;53.686;10.094;2023-04-05T00:16:35;102401.28;;;-1.04;100.00
19128;BME280;9696;53.686;10.094;2023-04-05T00:19:04;102391.91;;;-1.09;100.00
19128;BME280;9696;53.686;10.094;2023-04-05T00:21:33;102398.81;;;-1.14;100.00
19128;BME280;9696;53.686;10.094;2023-04-05T00:24:03;102401.41;;;-1.13;100.00
19128;BME280;9696;53.686;10.094;2023-04-05T00:26:34;102397.91;;;-1.07;100.00
19128;BME280;9696;53.686;10.094;2023-04-05T00:29:04;102390.28;;;-1.16;100.00
19128;BME280;9696;53.686;10.094;2023-04-05T00:31:33;102399.72;;;-1.18;100.00
19128;BME280;9696;53.686;10.094;2023-04-05T00:34:02;102398.91;;;-1.20;100.00
19128;BME280;9696;53.686;10.094;2023-04-05T00:36:35;102398.94;;;-1.23;100.00
19128;BME280;9696;53.686;10.094;2023-04-05T00:39:04;102393.91;;;-1.32;100.00
19128;BME280;9696;53.686;10.094;2023-04-05T00:41:35;102389.69;;;-1.39;100.00
19128;BME280;9696;53.686;10.094;2023-04-05T00:44:05;102397.38;;;-1.36;100.00
19128;BME280;9696;53.686;10.094;2023-04-05T00:46:34;102395.66;;;-1.34;100.00
19128;BME280;9696;53.686;10.094;2023-04-05T00:49:04;102389.69;;;-1.41;100.00
19128;BME280;9696;53.686;10.094;2023-04-05T00:51:35;102388.88;;;-1.46;100.00
19128;BME280;9696;53.686;10.094;2023-04-05T00:54:04;102384.50;;;-1.36;100.00
19128;BME280;9696;53.686;10.094;2023-04-05T00:56:37;102386.28;;;-1.43;100.00
19128;BME280;9696;53.686;10.094;2023-04-05T00:59:07;102388.94;;;-1.54;100.00
19128;BME280;9696;53.686;10.094;2023-04-05T01:01:38;102383.88;;;-1.60;100.00
19128;BME280;9696;53.686;10.094;2023-04-05T01:04:09;102376.16;;;-1.58;100.00
19128;BME280;9696;53.686;10.094;2023-04-05T01:06:51;102383.00;;;-1.57;100.00
19128;BME280;9696;53.686;10.094;2023-04-05T01:09:32;102379.63;;;-1.62;100.00
19128;BME280;9696;53.686;10.094;2023-04-05T01:12:08;102380.53;;;-1.69;100.00
19128;BME280;9696;53.686;10.094;2023-04-05T01:14:45;102372.78;;;-1.65;100.00
19128;BME280;9696;53.686;10.094;2023-04-05T01:17:15;102375.31;;;-1.60;100.00
19128;BME280;9696;53.686;10.094;2023-04-05T01:19:49;102372.75;;;-1.62;100.00
19128;BME280;9696;53.686;10.094;2023-04-05T01:26:03;102369.22;;;-1.53;100.00
19128;BME280;9696;53.686;10.094;2023-04-05T01:28:55;102372.75;;;-1.60;100.00
19128;BME280;9696;53.686;10.094;2023-04-05T01:31:34;102360.00;;;-1.71;100.00
19128;BME280;9696;53.686;10.094;2023-04-05T01:34:10;102361.72;;;-1.73;100.00
19128;BME280;9696;53.686;10.094;2023-04-05T01:36:46;102357.44;;;-1.71;100.00
19128;BME280;9696;53.686;10.094;2023-04-05T01:39:19;102361.75;;;-1.77;100.00
19128;BME280;9696;53.686;10.094;2023-04-05T01:41:49;102348.88;;;-1.76;100.00
19128;BME280;9696;53.686;10.094;2023-04-05T01:44:18;102360.88;;;-1.75;100.00
19128;BME280;9696;53.686;10.094;2023-04-05T01:46:49;102348.97;;;-1.82;100.00
19128;BME280;9696;53.686;10.094;2023-04-05T01:49:18;102348.97;;;-1.83;100.00
19128;BME280;9696;53.686;10.094;2023-04-05T01:51:47;102347.25;;;-1.84;100.00
19128;BME280;9696;53.686;10.094;2023-04-05T01:54:17;102350.56;;;-1.72;100.00
19128;BME280;9696;53.686;10.094;2023-04-05T01:56:46;102342.69;;;-1.55;100.00
19128;BME280;9696;53.686;10.094;2023-04-05T01:59:15;102339.94;;;-1.40;100.00
19128;BME280;9696;53.686;10.094;2023-04-05T02:01:44;102337.28;;;-1.34;100.00
19128;BME280;9696;53.686;10.094;2023-04-05T02:04:15;102330.47;;;-1.36;100.00
19128;BME280;9696;53.686;10.094;2023-04-05T02:06:44;102330.47;;;-1.36;100.00
19128;BME280;9696;53.686;10.094;2023-04-05T02:09:13;102328.84;;;-1.45;100.00
19128;BME280;9696;53.686;10.094;2023-04-05T02:11:45;102336.69;;;-1.57;100.00
19128;BME280;9696;53.686;10.094;2023-04-05T02:14:14;102330.75;;;-1.62;100.00
19128;BME280;9696;53.686;10.094;2023-04-05T02:16:43;102329.94;;;-1.67;100.00
19128;BME280;9696;53.686;10.094;2023-04-05T02:19:15;102335.41;;;-1.99;100.00
19128;BME280;9696;53.686;10.094;2023-04-05T02:21:50;102330.22;;;-1.96;100.00
19128;BME280;9696;53.686;10.094;2023-04-05T02:24:20;102330.28;;;-2.04;100.00
19128;BME280;9696;53.686;10.094;2023-04-05T02:26:49;102338.00;;;-2.05;100.00
19128;BME280;9696;53.686;10.094;2023-04-05T02:29:18;102334.66;;;-2.13;100.00
19128;BME280;9696;53.686;10.094;2023-04-05T02:31:49;102335.56;;;-2.19;100.00
19128;BME280;9696;53.686;10.094;2023-04-05T02:34:19;102331.25;;;-2.15;100.00
19128;BME280;9696;53.686;10.094;2023-04-05T02:36:50;102331.22;;;-2.12;100.00
19128;BME280;9696;53.686;10.094;2023-04-05T02:39:19;102331.16;;;-2.02;100.00
19128;BME280;9696;53.686;10.094;2023-04-05T02:41:48;102329.28;;;-1.89;100.00
19128;BME280;9696;53.686;10.094;2023-04-05T02:44:17;102326.53;;;-1.68;100.00
19128;BME280;9696;53.686;10.094;2023-04-05T02:46:46;102327.25;;;-1.55;100.00
19128;BME280;9696;53.686;10.094;2023-04-05T02:49:18;102327.13;;;-1.46;100.00
19128;BME280;9696;53.686;10.094;2023-04-05T02:51:47;102324.53;;;-1.43;100.00
19128;BME280;9696;53.686;10.094;2023-04-05T02:54:17;102312.63;;;-1.53;100.00
19128;BME280;9696;53.686;10.094;2023-04-05T02:56:46;102316.78;;;-1.40;100.00
19128;BME280;9696;53.686;10.094;2023-04-05T02:59:17;102313.44;;;-1.47;100.00
19128;BME280;9696;53.686;10.094;2023-04-05T03:01:48;102314.31;;;-1.48;100.00
19128;BME280;9696;53.686;10.094;2023-04-05T03:04:25;102308.38;;;-1.56;100.00
19128;BME280;9696;53.686;10.094;2023-04-05T03:07:00;102310.06;;;-1.53;100.00
19128;BME280;9696;53.686;10.094;2023-04-05T03:09:31;102308.53;;;-1.68;100.00
19128;BME280;9696;53.686;10.094;2023-04-05T03:12:05;102303.28;;;-1.60;100.00
19128;BME280;9696;53.686;10.094;2023-04-05T03:14:38;102310.03;;;-1.50;100.00
19128;BME280;9696;53.686;10.094;2023-04-05T03:17:11;102304.91;;;-1.52;100.00
19128;BME280;9696;53.686;10.094;2023-04-05T03:19:45;102306.66;;;-1.55;100.00
19128;BME280;9696;53.686;10.094;2023-04-05T03:22:25;102298.94;;;-1.55;100.00
19128;BME280;9696;53.686;10.094;2023-04-05T03:24:56;102306.72;;;-1.61;100.00
19128;BME280;9696;53.686;10.094;2023-04-05T03:27:27;102295.53;;;-1.57;100.00
19128;BME280;9696;53.686;10.094;2023-04-05T03:30:17;102294.75;;;-1.62;100.00
19128;BME280;9696;53.686;10.094;2023-04-05T03:33:00;102293.81;;;-1.55;100.00
19128;BME280;9696;53.686;10.094;2023-04-05T03:35:39;102291.28;;;-1.58;100.00
19128;BME280;9696;53.686;10.094;2023-04-05T03:38:11;102296.47;;;-1.63;100.00
19128;BME280;9696;53.686;10.094;2023-04-05T03:40:53;102293.03;;;-1.65;100.00
19128;BME280;9696;53.686;10.094;2023-04-05T03:43:22;102286.91;;;-1.52;100.00
19128;BME280;9696;53.686;10.094;2023-04-05T03:45:52;102295.44;;;-1.47;100.00
19128;BME280;9696;53.686;10.094;2023-04-05T03:48:21;102289.38;;;-1.44;100.00
19128;BME280;9696;53.686;10.094;2023-04-05T03:50:52;102295.47;;;-1.53;100.00
19128;BME280;9696;53.686;10.094;2023-04-05T03:53:21;102296.44;;;-1.60;100.00
19128;BME280;9696;53.686;10.094;2023-04-05T03:55:54;102288.63;;;-1.54;100.00
19128;BME280;9696;53.686;10.094;2023-04-05T03:58:38;102291.09;;;-1.45;100.00
19128;BME280;9696;53.686;10.094;2023-04-05T04:01:08;102289.22;;;-1.30;100.00
19128;BME280;9696;53.686;10.094;2023-04-05T04:03:38;102297.72;;;-1.25;100.00
19128;BME280;9696;53.686;10.094;2023-04-05T04:06:09;102289.25;;;-1.33;100.00
19128;BME280;9696;53.686;10.094;2023-04-05T04:08:38;102293.56;;;-1.35;100.00
19128;BME280;9696;53.686;10.094;2023-04-05T04:11:08;102287.31;;;-1.15;100.00
19128;BME280;9696;53.686;10.094;2023-04-05T04:13:39;102283.72;;;-1.06;100.00
19128;BME280;9696;53.686;10.094;2023-04-05T04:16:25;102281.91;;;-0.98;100.00
19128;BME280;9696;53.686;10.094;2023-04-05T04:19:19;102285.28;;;-0.91;100.00
19128;BME280;9696;53.686;10.094;2023-04-05T04:22:17;102281.09;;;-1.00;100.00
19128;BME280;9696;53.686;10.094;2023-04-05T04:25:08;102283.69;;;-1.02;100.00
19128;BME280;9696;53.686;10.094;2023-04-05T04:27:42;102272.56;;;-1.07;100.00
19128;BME280;9696;53.686;10.094;2023-04-05T04:30:21;102270.09;;;-1.14;100.00
19128;BME280;9696;53.686;10.094;2023-04-05T04:32:57;102278.53;;;-1.02;100.00
19128;BME280;9696;53.686;10.094;2023-04-05T04:35:45;102275.09;;;-1.01;100.00
19128;BME280;9696;53.686;10.094;2023-04-05T04:38:54;102272.53;;;-1.02;100.00
19128;BME280;9696;53.686;10.094;2023-04-05T04:41:49;102271.50;;;-0.90;100.00
19128;BME280;9696;53.686;10.094;2023-04-05T04:44:31;102267.81;;;-0.73;100.00
19128;BME280;9696;53.686;10.094;2023-04-05T04:47:23;102271.19;;;-0.68;100.00
19128;BME280;9696;53.686;10.094;2023-04-05T04:50:05;102282.28;;;-1.24;100.00
19128;BME280;9696;53.686;10.094;2023-04-05T04:52:35;102277.88;;;-1.17;100.00
19128;BME280;9696;53.686;10.094;2023-04-05T04:55:07;102275.34;;;-1.20;100.00
19128;BME280;9696;53.686;10.094;2023-04-05T04:57:36;102268.97;;;-0.93;100.00
19128;BME280;9696;53.686;10.094;2023-04-05T05:00:06;102271.19;;;-0.71;100.00
19128;BME280;9696;53.686;10.094;2023-04-05T05:02:40;102275.34;;;-0.61;100.00
19128;BME280;9696;53.686;10.094;2023-04-05T05:05:13;102263.28;;;-0.57;100.00
19128;BME280;9696;53.686;10.094;2023-04-05T05:07:42;102261.66;;;-0.64;100.00
19128;BME280;9696;53.686;10.094;2023-04-05T05:10:13;102266.59;;;-0.51;100.00
19128;BME280;9696;53.686;10.094;2023-04-05T05:12:45;102276.63;;;-0.32;100.00
19128;BME280;9696;53.686;10.094;2023-04-05T05:15:16;102268.53;;;-0.13;100.00
19128;BME280;9696;53.686;10.094;2023-04-05T05:17:45;102267.41;;;0.00;100.00
19128;BME280;9696;53.686;10.094;2023-04-05T05:20:20;102267.94;;;0.19;100.00
19128;BME280;9696;53.686;10.094;2023-04-05T05:22:49;102260.06;;;0.27;100.00
19128;BME280;9696;53.686;10.094;2023-04-05T05:25:20;102267.59;;;0.37;100.00
19128;BME280;9696;53.686;10.094;2023-04-05T05:27:50;102267.44;;;0.43;100.00
19128;BME280;9696;53.686;10.094;2023-04-05T05:30:22;102259.75;;;0.42;100.00
19128;BME280;9696;53.686;10.094;2023-04-05T05:32:51;102258.91;;;0.40;100.00
19128;BME280;9696;53.686;10.094;2023-04-05T05:35:20;102254.69;;;0.37;100.00
19128;BME280;9696;53.686;10.094;2023-04-05T05:37:51;102248.06;;;0.24;100.00
19128;BME280;9696;53.686;10.094;2023-04-05T05:40:22;102241.84;;;0.34;100.00
19128;BME280;9696;53.686;10.094;2023-04-05T05:42:53;102246.03;;;0.80;100.00
19128;BME280;9696;53.686;10.094;2023-04-05T05:45:22;102234.81;;;1.19;100.00
19128;BME280;9696;53.686;10.094;2023-04-05T05:47:51;102232.94;;;1.61;100.00
19128;BME280;9696;53.686;10.094;2023-04-05T05:50:20;102226.94;;;1.92;100.00
19128;BME280;9696;53.686;10.094;2023-04-05T05:52:49;102229.09;;;2.08;100.00
19128;BME280;9696;53.686;10.094;2023-04-05T05:55:18;102222.53;;;1.95;100.00
19128;BME280;9696;53.686;10.094;2023-04-05T05:57:49;102228.66;;;2.23;100.00
19128;BME280;9696;53.686;10.094;2023-04-05T06:00:20;102236.53;;;2.50;100.00
19128;BME280;9696;53.686;10.094;2023-04-05T06:02:49;102228.38;;;2.63;100.00
19128;BME280;9696;53.686;10.094;2023-04-05T06:05:19;102233.22;;;2.74;100.00
19128;BME280;9696;53.686;10.094;2023-04-05T06:07:48;102229.41;;;3.13;100.00
19128;BME280;9696;53.686;10.094;2023-04-05T06:10:17;102232.38;;;3.01;100.00
19128;BME280;9696;53.686;10.094;2023-04-05T06:12:47;102232.72;;;3.71;100.00
19128;BME280;9696;53.686;10.094;2023-04-05T06:15:17;102239.38;;;3.52;100.00
19128;BME280;9696;53.686;10.094;2023-04-05T06:17:46;102241.09;;;3.79;100.00
19128;BME280;9696;53.686;10.094;2023-04-05T06:20:16;102240.72;;;3.90;100.00
19128;BME280;9696;53.686;10.094;2023-04-05T06:22:45;102239.38;;;4.96;100.00
19128;BME280;9696;53.686;10.094;2023-04-05T06:25:14;102238.81;;;4.66;100.00
19128;BME280;9696;53.686;10.094;2023-04-05T06:27:45;102239.00;;;4.13;100.00
19128;BME280;9696;53.686;10.094;2023-04-05T06:30:14;102247.38;;;4.21;100.00
19128;BME280;9696;53.686;10.094;2023-04-05T06:32:45;102254.84;;;4.77;100.00
19128;BME280;9696;53.686;10.094;2023-04-05T06:35:15;102245.16;;;5.02;100.00
19128;BME280;9696;53.686;10.094;2023-04-05T06:37:44;102237.97;;;5.73;100.00
19128;BME280;9696;53.686;10.094;2023-04-05T06:40:14;102256.72;;;4.95;100.00
19128;BME280;9696;53.686;10.094;2023-04-05T06:42:44;102249.59;;;5.00;100.00
19128;BME280;9696;53.686;10.094;2023-04-05T06:45:17;102259.09;;;5.01;100.00
19128;BME280;9696;53.686;10.094;2023-04-05T06:47:48;102257.81;;;4.90;100.00
19128;BME280;9696;53.686;10.094;2023-04-05T06:50:18;102267.16;;;4.72;100.00
19128;BME280;9696;53.686;10.094;2023-04-05T06:52:47;102262.97;;;4.68;100.00
19128;BME280;9696;53.686;10.094;2023-04-05T06:55:16;102260.03;;;5.42;100.00
19128;BME280;9696;53.686;10.094;2023-04-05T06:57:45;102250.59;;;6.22;100.00
19128;BME280;9696;53.686;10.094;2023-04-05T07:00:15;102248.78;;;5.84;100.00
19128;BME280;9696;53.686;10.094;2023-04-05T07:02:44;102253.34;;;6.19;100.00
19128;BME280;9696;53.686;10.094;2023-04-05T07:05:15;102245.56;;;6.38;100.00
19128;BME280;9696;53.686;10.094;2023-04-05T07:07:44;102235.78;;;6.61;100.00
19128;BME280;9696;53.686;10.094;2023-04-05T07:10:15;102239.84;;;7.04;100.00
19128;BME280;9696;53.686;10.094;2023-04-05T07:12:45;102243.47;;;7.19;100.00
19128;BME280;9696;53.686;10.094;2023-04-05T07:15:14;102238.19;;;7.21;100.00
19128;BME280;9696;53.686;10.094;2023-04-05T07:17:44;102239.31;;;7.15;100.00
19128;BME280;9696;53.686;10.094;2023-04-05T07:20:14;102236.66;;;8.02;100.00
19128;BME280;9696;53.686;10.094;2023-04-05T07:22:44;102236.53;;;7.71;100.00
19128;BME280;9696;53.686;10.094;2023-04-05T07:25:13;102233.47;;;6.55;100.00
19128;BME280;9696;53.686;10.094;2023-04-05T07:27:42;102230.63;;;6.79;100.00
19128;BME280;9696;53.686;10.094;2023-04-05T07:30:12;102231.38;;;7.35;100.00
19128;BME280;9696;53.686;10.094;2023-04-05T07:32:41;102226.75;;;6.87;100.00
19128;BME280;9696;53.686;10.094;2023-04-05T07:35:10;102232.13;;;7.20;100.00
19128;BME280;9696;53.686;10.094;2023-04-05T07:37:41;102229.97;;;7.11;100.00
19128;BME280;9696;53.686;10.094;2023-04-05T07:40:11;102224.56;;;6.78;100.00
19128;BME280;9696;53.686;10.094;2023-04-05T07:42:40;102226.13;;;6.45;100.00
19128;BME280;9696;53.686;10.094;2023-04-05T07:45:09;102229.84;;;6.39;100.00
19128;BME280;9696;53.686;10.094;2023-04-05T07:47:39;102219.47;;;7.47;100.00
19128;BME280;9696;53.686;10.094;2023-04-05T07:50:08;102225.94;;;8.24;100.00
19128;BME280;9696;53.686;10.094;2023-04-05T07:52:43;102223.69;;;7.84;100.00
19128;BME280;9696;53.686;10.094;2023-04-05T07:55:12;102216.34;;;7.40;99.00
19128;BME280;9696;53.686;10.094;2023-04-05T07:57:41;102217.59;;;7.50;98.78
19128;BME280;9696;53.686;10.094;2023-04-05T08:00:11;102224.78;;;7.97;98.93
19128;BME280;9696;53.686;10.094;2023-04-05T08:02:40;102212.88;;;7.23;98.56
19128;BME280;9696;53.686;10.094;2023-04-05T08:05:09;102214.13;;;8.17;100.00
19128;BME280;9696;53.686;10.094;2023-04-05T08:07:39;102219.09;;;8.39;96.42
19128;BME280;9696;53.686;10.094;2023-04-05T08:10:10;102211.50;;;8.50;95.99
19128;BME280;9696;53.686;10.094;2023-04-05T08:12:39;102207.88;;;8.20;94.53
19128;BME280;9696;53.686;10.094;2023-04-05T08:15:09;102211.69;;;8.78;92.46
19128;BME280;9696;53.686;10.094;2023-04-05T08:17:38;102208.59;;;9.17;90.38
19128;BME280;9696;53.686;10.094;2023-04-05T08:20:08;102215.16;;;8.79;90.68
19128;BME280;9696;53.686;10.094;2023-04-05T08:22:37;102213.50;;;8.29;83.10
19128;BME280;9696;53.686;10.094;2023-04-05T08:25:09;102202.81;;;9.42;82.62
19128;BME280;9696;53.686;10.094;2023-04-05T08:27:38;102215.13;;;8.47;80.81
19128;BME280;9696;53.686;10.094;2023-04-05T08:30:08;102208.34;;;9.22;81.02
19128;BME280;9696;53.686;10.094;2023-04-05T08:32:38;102199.50;;;9.09;76.95
19128;BME280;9696;53.686;10.094;2023-04-05T08:35:08;102201.63;;;8.86;82.01
19128;BME280;9696;53.686;10.094;2023-04-05T08:37:37;102202.97;;;9.09;91.84
19128;BME280;9696;53.686;10.094;2023-04-05T08:40:08;102205.63;;;9.39;89.25
19128;BME280;9696;53.686;10.094;2023-04-05T08:42:44;102205.63;;;9.97;82.39
19128;BME280;9696;53.686;10.094;2023-04-05T08:45:17;102196.78;;;9.70;82.79
19128;BME280;9696;53.686;10.094;2023-04-05T08:47:49;102201.47;;;9.65;87.39
19128;BME280;9696;53.686;10.094;2023-04-05T08:50:20;102200.56;;;8.75;88.67
19128;BME280;9696;53.686;10.094;2023-04-05T08:52:51;102196.59;;;10.17;84.16
19128;BME280;9696;53.686;10.094;2023-04-05T08:55:21;102203.41;;;9.91;85.87
19128;BME280;9696;53.686;10.094;2023-04-05T08:57:53;102196.06;;;9.82;85.11
19128;BME280;9696;53.686;10.094;2023-04-05T09:00:26;102193.06;;;9.74;89.38
19128;BME280;9696;53.686;10.094;2023-04-05T09:02:57;102180.56;;;10.35;90.14
19128;BME280;9696;53.686;10.094;2023-04-05T09:05:30;102188.66;;;9.30;87.09
19128;BME280;9696;53.686;10.094;2023-04-05T09:07:59;102191.09;;;9.04;92.96
19128;BME280;9696;53.686;10.094;2023-04-05T09:10:31;102189.31;;;9.64;92.79
19128;BME280;9696;53.686;10.094;2023-04-05T09:13:00;102188.34;;;10.37;81.64
19128;BME280;9696;53.686;10.094;2023-04-05T09:15:30;102198.69;;;9.96;81.29
19128;BME280;9696;53.686;10.094;2023-04-05T09:17:59;102197.00;;;9.81;88.88
19128;BME280;9696;53.686;10.094;2023-04-05T09:20:34;102184.16;;;9.76;81.96
19128;BME280;9696;53.686;10.094;2023-04-05T09:23:03;102191.19;;;8.86;88.82
19128;BME280;9696;53.686;10.094;2023-04-05T09:25:35;102186.91;;;9.89;89.80
19128;BME280;9696;53.686;10.094;2023-04-05T09:28:06;102183.94;;;10.78;89.65
19128;BME280;9696;53.686;10.094;2023-04-05T09:30:35;102188.06;;;10.27;87.25
19128;BME280;9696;53.686;10.094;2023-04-05T09:33:08;102179.13;;;10.58;82.04
19128;BME280;9696;53.686;10.094;2023-04-05T09:35:38;102179.66;;;9.64;83.01
19128;BME280;9696;53.686;10.094;2023-04-05T09:38:07;102181.00;;;10.83;81.84
19128;BME280;9696;53.686;10.094;2023-04-05T09:40:43;102179.81;;;9.91;87.23
19128;BME280;9696;53.686;10.094;2023-04-05T09:43:37;102174.38;;;8.75;93.49
19128;BME280;9696;53.686;10.094;2023-04-05T09:46:14;102172.88;;;8.71;99.06
19128;BME280;9696;53.686;10.094;2023-04-05T09:48:55;102164.31;;;10.43;91.91
19128;BME280;9696;53.686;10.094;2023-04-05T09:51:31;102165.94;;;9.75;93.74
19128;BME280;9696;53.686;10.094;2023-04-05T09:54:04;102166.06;;;9.43;98.00
19128;BME280;9696;53.686;10.094;2023-04-05T09:56:37;102176.31;;;8.87;100.00
19128;BME280;9696;53.686;10.094;2023-04-05T09:59:07;102170.84;;;8.91;100.00
19128;BME280;9696;53.686;10.094;2023-04-05T10:01:42;102171.31;;;8.98;100.00
19128;BME280;9696;53.686;10.094;2023-04-05T10:04:11;102164.00;;;8.58;100.00
19128;BME280;9696;53.686;10.094;2023-04-05T10:06:41;102163.16;;;8.88;100.00
19128;BME280;9696;53.686;10.094;2023-04-05T10:09:11;102160.03;;;8.66;100.00
19128;BME280;9696;53.686;10.094;2023-04-05T10:11:43;102159.13;;;8.67;100.00
19128;BME280;9696;53.686;10.094;2023-04-05T10:14:13;102154.50;;;8.72;100.00
19128;BME280;9696;53.686;10.094;2023-04-05T10:16:46;102156.56;;;8.81;100.00
19128;BME280;9696;53.686;10.094;2023-04-05T10:19:26;102156.50;;;8.51;100.00
19128;BME280;9696;53.686;10.094;2023-04-05T10:21:58;102150.13;;;8.57;100.00
19128;BME280;9696;53.686;10.094;2023-04-05T10:24:33;102143.59;;;9.10;100.00
19128;BME280;9696;53.686;10.094;2023-04-05T10:27:15;102145.63;;;9.20;100.00
19128;BME280;9696;53.686;10.094;2023-04-05T10:29:50;102142.03;;;9.21;100.00
19128;BME280;9696;53.686;10.094;2023-04-05T10:32:29;102135.19;;;9.05;100.00
19128;BME280;9696;53.686;10.094;2023-04-05T10:35:05;102136.66;;;9.09;100.00
19128;BME280;9696;53.686;10.094;2023-04-05T10:37:45;102136.31;;;8.69;100.00
19128;BME280;9696;53.686;10.094;2023-04-05T10:40:20;102130.03;;;9.03;100.00
19128;BME280;9696;53.686;10.094;2023-04-05T10:42:51;102124.94;;;9.16;100.00
19128;BME280;9696;53.686;10.094;2023-04-05T10:45:22;102120.59;;;9.01;100.00
19128;BME280;9696;53.686;10.094;2023-04-05T10:47:57;102124.94;;;9.16;100.00
19128;BME280;9696;53.686;10.094;2023-04-05T10:50:29;102125.88;;;9.15;100.00
19128;BME280;9696;53.686;10.094;2023-04-05T10:53:00;102121.50;;;9.29;97.84
19128;BME280;9696;53.686;10.094;2023-04-05T10:55:30;102115.81;;;9.37;99.08
19128;BME280;9696;53.686;10.094;2023-04-05T10:58:01;102106.78;;;9.71;94.95
19128;BME280;9696;53.686;10.094;2023-04-05T11:00:30;102103.69;;;9.78;93.98
19128;BME280;9696;53.686;10.094;2023-04-05T11:03:00;102102.63;;;11.04;86.14
19128;BME280;9696;53.686;10.094;2023-04-05T11:05:31;102101.00;;;11.28;86.82
19128;BME280;9696;53.686;10.094;2023-04-05T11:08:04;102099.13;;;10.91;81.72
19128;BME280;9696;53.686;10.094;2023-04-05T11:10:35;102093.66;;;10.13;84.90
19128;BME280;9696;53.686;10.094;2023-04-05T11:13:08;102086.16;;;11.02;80.80
19128;BME280;9696;53.686;10.094;2023-04-05T11:15:38;102082.19;;;10.43;80.57
19128;BME280;9696;53.686;10.094;2023-04-05T11:18:09;102076.25;;;10.53;80.40
19128;BME280;9696;53.686;10.094;2023-04-05T11:20:44;102073.81;;;10.09;86.54
19128;BME280;9696;53.686;10.094;2023-04-05T11:23:15;102085.75;;;9.28;92.05
19128;BME280;9696;53.686;10.094;2023-04-05T11:25:49;102078.78;;;9.85;88.68
19128;BME280;9696;53.686;10.094;2023-04-05T11:28:24;102074.81;;;9.08;91.29
19128;BME280;9696;53.686;10.094;2023-04-05T11:30:54;102075.41;;;9.27;93.05
19128;BME280;9696;53.686;10.094;2023-04-05T11:33:54;102068.09;;;9.18;94.36
19128;BME280;9696;53.686;10.094;2023-04-05T11:36:38;102068.66;;;8.93;97.07
19128;BME280;9696;53.686;10.094;2023-04-05T11:39:24;102060.16;;;9.33;99.91
19128;BME280;9696;53.686;10.094;2023-04-05T11:41:57;102060.41;;;9.01;99.75
19128;BME280;9696;53.686;10.094;2023-04-05T11:44:28;102067.28;;;9.45;99.53
19128;BME280;9696;53.686;10.094;2023-04-05T11:47:03;102062.97;;;9.30;95.37
19128;BME280;9696;53.686;10.094;2023-04-05T11:49:33;102060.22;;;9.18;95.47
19128;BME280;9696;53.686;10.094;2023-04-05T11:52:10;102062.59;;;9.36;100.00
19128;BME280;9696;53.686;10.094;2023-04-05T11:54:40;102059.22;;;8.90;96.39
19128;BME280;9696;53.686;10.094;2023-04-05T11:57:14;102059.81;;;8.95;99.35
19128;BME280;9696;53.686;10.094;2023-04-05T11:59:45;102051.22;;;9.52;92.26
19128;BME280;9696;53.686;10.094;2023-04-05T12:02:14;102060.28;;;9.74;92.87
19128;BME280;9696;53.686;10.094;2023-04-05T12:04:43;102049.38;;;9.10;91.70
19128;BME280;9696;53.686;10.094;2023-04-05T12:07:17;102043.41;;;9.08;92.70
19128;BME280;9696;53.686;10.094;2023-04-05T12:10:03;102043.94;;;9.13;89.75
19128;BME280;9696;53.686;10.094;2023-04-05T12:12:35;102038.59;;;9.44;92.79
19128;BME280;9696;53.686;10.094;2023-04-05T12:15:08;102040.78;;;9.08;99.25
19128;BME280;9696;53.686;10.094;2023-04-05T12:17:47;102036.13;;;9.27;100.00
19128;BME280;9696;53.686;10.094;2023-04-05T12:20:19;102033.47;;;8.98;100.00
19128;BME280;9696;53.686;10.094;2023-04-05T12:22:50;102030.25;;;8.93;100.00
19128;BME280;9696;53.686;10.094;2023-04-05T12:25:20;102028.34;;;9.11;100.00
19128;BME280;9696;53.686;10.094;2023-04-05T12:27:49;102028.53;;;9.22;100.00
19128;BME280;9696;53.686;10.094;2023-04-05T12:30:21;102015.94;;;9.43;100.00
19128;BME280;9696;53.686;10.094;2023-04-05T12:32:52;102016.38;;;9.07;100.00
19128;BME280;9696;53.686;10.094;2023-04-05T12:35:22;102023.53;;;9.48;100.00
19128;BME280;9696;53.686;10.094;2023-04-05T12:37:57;102017.22;;;9.64;96.10
19128;BME280;9696;53.686;10.094;2023-04-05T12:40:27;102014.97;;;9.72;95.38
19128;BME280;9696;53.686;10.094;2023-04-05T12:43:01;102003.22;;;9.51;92.52
19128;BME280;9696;53.686;10.094;2023-04-05T12:45:32;102008.63;;;9.34;88.63
19128;BME280;9696;53.686;10.094;2023-04-05T12:48:10;101999.72;;;9.65;89.71
19128;BME280;9696;53.686;10.094;2023-04-05T12:50:42;101999.53;;;9.82;85.99
19128;BME280;9696;53.686;10.094;2023-04-05T12:53:16;101999.16;;;9.74;88.05
19128;BME280;9696;53.686;10.094;2023-04-05T12:55:51;101992.53;;;10.36;81.52
19128;BME280;9696;53.686;10.094;2023-04-05T12:58:21;101984.34;;;11.43;78.95
19128;BME280;9696;53.686;10.094;2023-04-05T13:00:52;101984.94;;;12.56;67.39
19128;BME280;9696;53.686;10.094;2023-04-05T13:03:21;101977.78;;;13.48;59.19
19128;BME280;9696;53.686;10.094;2023-04-05T13:05:53;101982.59;;;12.75;57.83
19128;BME280;9696;53.686;10.094;2023-04-05T13:08:22;101981.81;;;11.54;55.12
19128;BME280;9696;53.686;10.094;2023-04-05T13:10:53;101976.72;;;10.90;56.29
19128;BME280;9696;53.686;10.094;2023-04-05T13:13:25;101978.16;;;10.81;61.84
19128;BME280;9696;53.686;10.094;2023-04-05T13:15:55;101986.16;;;10.40;70.65
19128;BME280;9696;53.686;10.094;2023-04-05T13:18:24;101985.13;;;9.75;80.80